createdAt,value
2023-07-09T00:00:45.135Z,51.179203
2023-07-09T00:01:45.188Z,51.179226
2023-07-09T00:02:45.205Z,51.179241
2023-07-09T00:03:45.181Z,51.179207
2023-07-09T00:04:45.096Z,51.179176
2023-07-09T00:05:45.108Z,51.179176
2023-07-09T00:06:45.110Z,51.179169
2023-07-09T00:07:45.056Z,51.179142
2023-07-09T00:08:45.089Z,51.179150
2023-07-09T00:09:45.065Z,51.179173
2023-07-09T00:10:45.027Z,51.179218
2023-07-09T00:11:45.068Z,51.179195
2023-07-09T00:12:45.032Z,51.179173
2023-07-09T00:13:45.066Z,51.179146
2023-07-09T00:14:44.997Z,51.179192
2023-07-09T00:15:45.036Z,51.179199
2023-07-09T00:16:45.026Z,51.179192
2023-07-09T00:17:45.010Z,51.179195
2023-07-09T00:18:44.973Z,51.179165
2023-07-09T00:19:44.950Z,51.179188
2023-07-09T00:20:44.921Z,51.179173
2023-07-09T00:21:44.932Z,51.179142
2023-07-09T00:22:44.925Z,51.179138
2023-07-09T00:23:44.908Z,51.179146
2023-07-09T00:24:44.911Z,51.179169
2023-07-09T00:25:44.880Z,51.179184
2023-07-09T00:26:44.884Z,51.179188
2023-07-09T00:27:44.869Z,51.179195
2023-07-09T00:28:44.868Z,51.179184
2023-07-09T00:29:44.842Z,51.179180
2023-07-09T00:30:44.804Z,51.179192
2023-07-09T00:31:44.898Z,51.179180
2023-07-09T00:32:44.945Z,51.179245
2023-07-09T00:33:44.787Z,51.179268
2023-07-09T00:34:44.796Z,51.179241
2023-07-09T00:35:44.789Z,51.179249
2023-07-09T00:36:44.754Z,51.179249
2023-07-09T00:37:44.758Z,51.179245
2023-07-09T00:38:44.768Z,51.179222
2023-07-09T00:39:44.732Z,51.179241
2023-07-09T00:40:44.725Z,51.179249
2023-07-09T00:41:44.718Z,51.179214
2023-07-09T00:42:44.722Z,51.179180
2023-07-09T00:43:44.705Z,51.179207
2023-07-09T00:44:44.671Z,51.179199
2023-07-09T00:45:44.701Z,51.179237
2023-07-09T00:46:44.694Z,51.179234
2023-07-09T00:47:44.653Z,51.179237
2023-07-09T00:48:44.666Z,51.179203
2023-07-09T00:49:44.641Z,51.179218
2023-07-09T00:50:44.601Z,51.179222
2023-07-09T00:51:44.636Z,51.179214
2023-07-09T00:52:44.605Z,51.179222
2023-07-09T00:53:44.594Z,51.179226
2023-07-09T00:54:44.562Z,51.179241
2023-07-09T00:55:44.573Z,51.179226
2023-07-09T00:56:44.549Z,51.179237
2023-07-09T00:57:44.592Z,51.179264
2023-07-09T00:58:44.547Z,51.179272
2023-07-09T00:59:44.548Z,51.179279
2023-07-09T01:00:44.492Z,51.179283
2023-07-09T01:01:44.575Z,51.179291
2023-07-09T01:02:44.541Z,51.179264
2023-07-09T01:03:44.473Z,51.179253
2023-07-09T01:04:44.516Z,51.179245
2023-07-09T01:05:44.559Z,51.179245
2023-07-09T01:06:44.453Z,51.179272
2023-07-09T01:07:44.440Z,51.179264
2023-07-09T01:08:44.458Z,51.179226
2023-07-09T01:09:44.417Z,51.179195
2023-07-09T01:10:44.377Z,51.179203
2023-07-09T01:11:44.399Z,51.179283
2023-07-09T01:12:44.409Z,51.179306
2023-07-09T01:13:44.388Z,51.179287
2023-07-09T01:14:44.364Z,51.179264
2023-07-09T01:15:44.393Z,51.179249
2023-07-09T01:16:44.362Z,51.179264
2023-07-09T01:17:44.355Z,51.179249
2023-07-09T01:18:44.304Z,51.179256
2023-07-09T01:19:44.762Z,51.179253
2023-07-09T01:20:44.284Z,51.179264
2023-07-09T01:21:44.293Z,51.179287
2023-07-09T01:22:44.285Z,51.179253
2023-07-09T01:23:44.277Z,51.179249
2023-07-09T01:24:44.251Z,51.179230
2023-07-09T01:25:44.267Z,51.179253
2023-07-09T01:26:44.244Z,51.179237
2023-07-09T01:27:44.197Z,51.179253
2023-07-09T01:28:44.229Z,51.179279
2023-07-09T01:29:46.084Z,51.179276
2023-07-09T01:30:45.173Z,51.179256
2023-07-09T01:31:44.248Z,51.179264
2023-07-09T01:32:44.216Z,51.179253
2023-07-09T01:33:44.186Z,51.179222
2023-07-09T01:34:44.142Z,51.179222
2023-07-09T01:35:44.183Z,51.179241
2023-07-09T01:36:44.102Z,51.179253
2023-07-09T01:37:44.133Z,51.179253
2023-07-09T01:38:44.128Z,51.179306
2023-07-09T01:39:44.096Z,51.179298
2023-07-09T01:40:44.087Z,51.179276
2023-07-09T01:41:44.060Z,51.179279
2023-07-09T01:42:44.076Z,51.179283
2023-07-09T01:43:44.071Z,51.179279
2023-07-09T01:44:44.013Z,51.179283
2023-07-09T01:45:44.042Z,51.179276
2023-07-09T01:46:44.768Z,51.179260
2023-07-09T01:47:44.104Z,51.179234
2023-07-09T01:48:43.997Z,51.179203
2023-07-09T01:49:43.997Z,51.179203
2023-07-09T01:50:43.982Z,51.179203
2023-07-09T01:51:43.964Z,51.179226
2023-07-09T01:52:43.978Z,51.179260
2023-07-09T01:53:43.957Z,51.179241
2023-07-09T01:54:43.909Z,51.179268
2023-07-09T01:55:43.919Z,51.179302
2023-07-09T01:56:43.917Z,51.179302
2023-07-09T01:57:43.907Z,51.179272
2023-07-09T01:58:43.885Z,51.179295
2023-07-09T01:59:43.892Z,51.179310
2023-07-09T02:00:43.878Z,51.179276
2023-07-09T02:01:43.841Z,51.179276
2023-07-09T02:02:44.912Z,51.179298
2023-07-09T02:03:43.840Z,51.179291
2023-07-09T02:04:43.858Z,51.179260
2023-07-09T02:05:43.794Z,51.179218
2023-07-09T02:06:43.820Z,51.179222
2023-07-09T02:07:44.777Z,51.179234
2023-07-09T02:08:43.819Z,51.179234
2023-07-09T02:09:43.755Z,51.179218
2023-07-09T02:10:43.745Z,51.179253
2023-07-09T02:11:43.731Z,51.179237
2023-07-09T02:12:43.751Z,51.179184
2023-07-09T02:13:43.781Z,51.179176
2023-07-09T02:14:43.676Z,51.179207
2023-07-09T02:15:43.730Z,51.179264
2023-07-09T02:16:43.804Z,51.179234
2023-07-09T02:17:43.724Z,51.179234
2023-07-09T02:18:43.683Z,51.179222
2023-07-09T02:19:43.665Z,51.179214
2023-07-09T02:20:43.627Z,51.179253
2023-07-09T02:21:43.650Z,51.179230
2023-07-09T02:22:43.602Z,51.179237
2023-07-09T02:23:43.614Z,51.179256
2023-07-09T02:24:43.598Z,51.179241
2023-07-09T02:25:43.583Z,51.179249
2023-07-09T02:26:43.588Z,51.179329
2023-07-09T02:27:43.572Z,51.179321
2023-07-09T02:28:43.547Z,51.179325
2023-07-09T02:29:43.529Z,51.179291
2023-07-09T02:30:43.571Z,51.179287
2023-07-09T02:31:43.519Z,51.179241
2023-07-09T02:32:43.531Z,51.179218
2023-07-09T02:33:43.506Z,51.179218
2023-07-09T02:34:43.499Z,51.179256
2023-07-09T02:35:43.466Z,51.179276
2023-07-09T02:36:43.469Z,51.179276
2023-07-09T02:37:43.461Z,51.179256
2023-07-09T02:38:43.422Z,51.179268
2023-07-09T02:39:43.437Z,51.179264
2023-07-09T02:40:43.433Z,51.179268
2023-07-09T02:41:43.403Z,51.179268
2023-07-09T02:42:43.400Z,51.179253
2023-07-09T02:43:43.396Z,51.179279
2023-07-09T02:44:43.391Z,51.179260
2023-07-09T02:45:43.345Z,51.179272
2023-07-09T02:46:43.342Z,51.179325
2023-07-09T02:47:43.422Z,51.179356
2023-07-09T02:48:43.330Z,51.179283
2023-07-09T02:49:43.324Z,51.179237
2023-07-09T02:50:43.301Z,51.179291
2023-07-09T02:51:43.310Z,51.179226
2023-07-09T02:52:43.401Z,51.179211
2023-07-09T02:53:43.258Z,51.179241
2023-07-09T02:54:43.266Z,51.179256
2023-07-09T02:55:43.233Z,51.179241
2023-07-09T02:56:43.238Z,51.179222
2023-07-09T02:57:43.246Z,51.179310
2023-07-09T02:58:43.210Z,51.179337
2023-07-09T02:59:43.193Z,51.179314
2023-07-09T03:00:43.178Z,51.179298
2023-07-09T03:01:43.250Z,51.179279
2023-07-09T03:02:43.192Z,51.179279
2023-07-09T03:03:43.191Z,51.179245
2023-07-09T03:04:43.145Z,51.179192
2023-07-09T03:05:43.114Z,51.179237
2023-07-09T03:06:43.139Z,51.179237
2023-07-09T03:07:43.129Z,51.179211
2023-07-09T03:08:43.105Z,51.179207
2023-07-09T03:09:43.095Z,51.179222
2023-07-09T03:10:43.087Z,51.179234
2023-07-09T03:11:43.055Z,51.179253
2023-07-09T03:12:43.050Z,51.179317
2023-07-09T03:13:43.083Z,51.179268
2023-07-09T03:14:43.059Z,51.179245
2023-07-09T03:15:43.014Z,51.179256
2023-07-09T03:16:43.083Z,51.179291
2023-07-09T03:17:43.060Z,51.179279
2023-07-09T03:18:42.986Z,51.179276
2023-07-09T03:19:43.979Z,51.179279
2023-07-09T03:20:42.994Z,51.179256
2023-07-09T03:21:42.968Z,51.179237
2023-07-09T03:22:42.972Z,51.179237
2023-07-09T03:23:42.939Z,51.179237
2023-07-09T03:24:42.939Z,51.179241
2023-07-09T03:25:42.929Z,51.179253
2023-07-09T03:26:42.884Z,51.179249
2023-07-09T03:27:42.909Z,51.179241
2023-07-09T03:28:42.892Z,51.179237
2023-07-09T03:29:42.842Z,51.179272
2023-07-09T03:30:42.866Z,51.179314
2023-07-09T03:31:42.917Z,51.179344
2023-07-09T03:32:42.841Z,51.179352
2023-07-09T03:33:42.815Z,51.179325
2023-07-09T03:34:42.821Z,51.179237
2023-07-09T03:35:42.783Z,51.179207
2023-07-09T03:36:42.778Z,51.179237
2023-07-09T03:37:42.788Z,51.179207
2023-07-09T03:38:42.779Z,51.179153
2023-07-09T03:39:42.735Z,51.179203
2023-07-09T03:40:42.744Z,51.179230
2023-07-09T03:41:42.752Z,51.179276
2023-07-09T03:42:42.703Z,51.179298
2023-07-09T03:43:42.759Z,51.179279
2023-07-09T03:44:42.707Z,51.179264
2023-07-09T03:45:42.683Z,51.179256
2023-07-09T03:46:42.762Z,51.179214
2023-07-09T03:47:42.743Z,51.179214
2023-07-09T03:48:42.762Z,51.179203
2023-07-09T03:49:42.634Z,51.179256
2023-07-09T03:50:42.632Z,51.179264
2023-07-09T03:51:42.642Z,51.179241
2023-07-09T03:52:42.607Z,51.179230
2023-07-09T03:53:42.590Z,51.179211
2023-07-09T03:54:42.577Z,51.179218
2023-07-09T03:55:42.598Z,51.179222
2023-07-09T03:56:42.572Z,51.179192
2023-07-09T03:57:42.537Z,51.179222
2023-07-09T03:58:42.536Z,51.179230
2023-07-09T03:59:42.501Z,51.179214
2023-07-09T04:00:42.500Z,51.179173
2023-07-09T04:01:42.568Z,51.179226
2023-07-09T04:02:42.494Z,51.179245
2023-07-09T04:03:42.490Z,51.179245
2023-07-09T04:04:42.467Z,51.179245
2023-07-09T04:05:42.489Z,51.179222
2023-07-09T04:06:42.433Z,51.179249
2023-07-09T04:07:42.450Z,51.179176
2023-07-09T04:08:42.417Z,51.179192
2023-07-09T04:09:42.377Z,51.179237
2023-07-09T04:10:42.411Z,51.179237
2023-07-09T04:11:42.393Z,51.179249
2023-07-09T04:12:42.393Z,51.179199
2023-07-09T04:13:42.371Z,51.179188
2023-07-09T04:14:42.359Z,51.179226
2023-07-09T04:15:42.379Z,51.179203
2023-07-09T04:16:42.479Z,51.179195
2023-07-09T04:17:42.386Z,51.179180
2023-07-09T04:18:42.303Z,51.179211
2023-07-09T04:19:42.280Z,51.179234
2023-07-09T04:20:42.288Z,51.179222
2023-07-09T04:21:42.283Z,51.179241
2023-07-09T04:22:42.240Z,51.179253
2023-07-09T04:23:42.269Z,51.179249
2023-07-09T04:24:42.248Z,51.179268
2023-07-09T04:25:42.215Z,51.179230
2023-07-09T04:26:42.209Z,51.179207
2023-07-09T04:27:42.232Z,51.179218
2023-07-09T04:28:42.224Z,51.179241
2023-07-09T04:29:42.172Z,51.179237
2023-07-09T04:30:42.187Z,51.179207
2023-07-09T04:31:42.211Z,51.179184
2023-07-09T04:32:42.164Z,51.179214
2023-07-09T04:33:42.154Z,51.179237
2023-07-09T04:34:42.128Z,51.179234
2023-07-09T04:35:42.107Z,51.179199
2023-07-09T04:36:42.116Z,51.179192
2023-07-09T04:37:42.117Z,51.179256
2023-07-09T04:38:42.060Z,51.179329
2023-07-09T04:39:42.098Z,51.179333
2023-07-09T04:40:42.101Z,51.179314
2023-07-09T04:41:42.041Z,51.179287
2023-07-09T04:42:42.045Z,51.179249
2023-07-09T04:43:43.037Z,51.179218
2023-07-09T04:44:42.029Z,51.179245
2023-07-09T04:45:42.075Z,51.179287
2023-07-09T04:46:42.082Z,51.179245
2023-07-09T04:47:42.044Z,51.179256
2023-07-09T04:48:41.994Z,51.179253
2023-07-09T04:49:41.981Z,51.179081
2023-07-09T04:50:41.956Z,51.179119
2023-07-09T04:51:41.941Z,51.179184
2023-07-09T04:52:41.939Z,51.179211
2023-07-09T04:53:41.953Z,51.179222
2023-07-09T04:54:41.917Z,51.179279
2023-07-09T04:55:41.876Z,51.179317
2023-07-09T04:56:41.901Z,51.179333
2023-07-09T04:57:41.911Z,51.179287
2023-07-09T04:58:41.863Z,51.179249
2023-07-09T04:59:41.849Z,51.179298
2023-07-09T05:00:41.882Z,51.179317
2023-07-09T05:01:41.864Z,51.179352
2023-07-09T05:02:41.833Z,51.179317
2023-07-09T05:03:41.851Z,51.179321
2023-07-09T05:04:41.811Z,51.179325
2023-07-09T05:05:41.787Z,51.179287
2023-07-09T05:06:41.790Z,51.179249
2023-07-09T05:07:41.789Z,51.179348
2023-07-09T05:08:41.766Z,51.179340
2023-07-09T05:09:41.743Z,51.179306
2023-07-09T05:10:41.738Z,51.179199
2023-07-09T05:11:42.723Z,51.179184
2023-07-09T05:12:41.731Z,51.179207
2023-07-09T05:13:41.790Z,51.179207
2023-07-09T05:14:41.689Z,51.179230
2023-07-09T05:15:41.776Z,51.179207
2023-07-09T05:16:41.667Z,51.179241
2023-07-09T05:17:41.696Z,51.179222
2023-07-09T05:18:41.650Z,51.179218
2023-07-09T05:19:41.643Z,51.179173
2023-07-09T05:20:41.631Z,51.179161
2023-07-09T05:21:41.634Z,51.179184
2023-07-09T05:22:41.614Z,51.179214
2023-07-09T05:23:41.620Z,51.179184
2023-07-09T05:24:41.592Z,51.179214
2023-07-09T05:25:41.556Z,51.179241
2023-07-09T05:26:41.561Z,51.179256
2023-07-09T05:27:41.591Z,51.179245
2023-07-09T05:28:41.554Z,51.179195
2023-07-09T05:29:41.513Z,51.179184
2023-07-09T05:30:41.543Z,51.179207
2023-07-09T05:31:41.534Z,51.179203
2023-07-09T05:32:41.549Z,51.179230
2023-07-09T05:33:41.492Z,51.179264
2023-07-09T05:34:41.494Z,51.179272
2023-07-09T05:35:41.465Z,51.179260
2023-07-09T05:36:41.465Z,51.179230
2023-07-09T05:37:41.466Z,51.179207
2023-07-09T05:38:41.458Z,51.179218
2023-07-09T05:39:41.410Z,51.179214
2023-07-09T05:40:41.402Z,51.179176
2023-07-09T05:41:41.430Z,51.179195
2023-07-09T05:42:41.390Z,51.179234
2023-07-09T05:43:41.417Z,51.179249
2023-07-09T05:44:41.365Z,51.179245
2023-07-09T05:45:41.362Z,51.179241
2023-07-09T05:46:41.372Z,51.179260
2023-07-09T05:47:41.376Z,51.179214
2023-07-09T05:48:41.362Z,51.179218
2023-07-09T05:49:41.291Z,51.179245
2023-07-09T05:50:41.334Z,51.179249
2023-07-09T05:51:41.274Z,51.179245
2023-07-09T05:52:42.262Z,51.179203
2023-07-09T05:53:41.293Z,51.179214
2023-07-09T05:54:41.280Z,51.179222
2023-07-09T05:55:41.231Z,51.179222
2023-07-09T05:56:41.234Z,51.179195
2023-07-09T05:57:41.260Z,51.179192
2023-07-09T05:58:41.222Z,51.179188
2023-07-09T05:59:41.184Z,51.179169
2023-07-09T06:00:41.225Z,51.179169
2023-07-09T06:01:41.192Z,51.179153
2023-07-09T06:02:41.296Z,51.179173
2023-07-09T06:03:41.310Z,51.179199
2023-07-09T06:04:41.256Z,51.179214
2023-07-09T06:05:41.168Z,51.179207
2023-07-09T06:06:41.145Z,51.179214
2023-07-09T06:07:41.145Z,51.179203
2023-07-09T06:08:41.111Z,51.179165
2023-07-09T06:09:41.092Z,51.179188
2023-07-09T06:10:41.093Z,51.179188
2023-07-09T06:11:41.105Z,51.179207
2023-07-09T06:12:41.090Z,51.179214
2023-07-09T06:13:41.093Z,51.179211
2023-07-09T06:14:41.068Z,51.179218
2023-07-09T06:15:41.047Z,51.179192
2023-07-09T06:16:41.032Z,51.179214
2023-07-09T06:17:41.082Z,51.179214
2023-07-09T06:18:41.012Z,51.179173
2023-07-09T06:19:40.979Z,51.179153
2023-07-09T06:20:41.969Z,51.179184
2023-07-09T06:21:40.992Z,51.179195
2023-07-09T06:22:40.939Z,51.179199
2023-07-09T06:23:40.968Z,51.179226
2023-07-09T06:24:40.964Z,51.179192
2023-07-09T06:25:40.924Z,51.179188
2023-07-09T06:26:40.905Z,51.179165
2023-07-09T06:27:40.930Z,51.179180
2023-07-09T06:28:40.899Z,51.179165
2023-07-09T06:29:40.868Z,51.179207
2023-07-09T06:30:40.935Z,51.179245
2023-07-09T06:31:40.900Z,51.179218
2023-07-09T06:32:40.931Z,51.179188
2023-07-09T06:33:40.849Z,51.179165
2023-07-09T06:34:40.826Z,51.179176
2023-07-09T06:35:40.829Z,51.179180
2023-07-09T06:37:40.775Z,51.179222
2023-07-09T06:38:40.808Z,51.179234
2023-07-09T06:39:40.759Z,51.179234
2023-07-09T06:40:40.755Z,51.179230
2023-07-09T06:41:40.762Z,51.179203
2023-07-09T06:42:40.749Z,51.179207
2023-07-09T06:43:40.715Z,51.179161
2023-07-09T06:44:40.720Z,51.179203
2023-07-09T06:45:40.740Z,51.179241
2023-07-09T06:46:40.710Z,51.179260
2023-07-09T06:47:40.723Z,51.179234
2023-07-09T06:48:40.697Z,51.179195
2023-07-09T06:49:40.654Z,51.179184
2023-07-09T06:50:40.659Z,51.179157
2023-07-09T06:51:40.670Z,51.179157
2023-07-09T06:52:40.627Z,51.179218
2023-07-09T06:53:40.598Z,51.179260
2023-07-09T06:54:40.650Z,51.179237
2023-07-09T06:55:40.591Z,51.179207
2023-07-09T06:56:40.577Z,51.179203
2023-07-09T06:57:40.597Z,51.179245
2023-07-09T06:58:40.569Z,51.179256
2023-07-09T06:59:40.535Z,51.179264
2023-07-09T07:00:40.566Z,51.179253
2023-07-09T07:01:40.587Z,51.179214
2023-07-09T07:02:40.540Z,51.179218
2023-07-09T07:03:40.568Z,51.179260
2023-07-09T07:04:40.504Z,51.179260
2023-07-09T07:05:40.497Z,51.179283
2023-07-09T07:06:40.497Z,51.179256
2023-07-09T07:07:40.449Z,51.179237
2023-07-09T07:08:40.441Z,51.179234
2023-07-09T07:09:40.474Z,51.179237
2023-07-09T07:10:42.974Z,51.179283
2023-07-09T07:11:40.443Z,51.179287
2023-07-09T07:12:40.428Z,51.179245
2023-07-09T07:13:40.403Z,51.179199
2023-07-09T07:14:40.384Z,51.179184
2023-07-09T07:15:40.414Z,51.179211
2023-07-09T07:16:40.399Z,51.179245
2023-07-09T07:17:40.376Z,51.179268
2023-07-09T07:18:40.408Z,51.179279
2023-07-09T07:19:40.312Z,51.179272
2023-07-09T07:20:40.308Z,51.179276
2023-07-09T07:21:40.336Z,51.179276
2023-07-09T07:22:40.300Z,51.179256
2023-07-09T07:23:40.281Z,51.179230
2023-07-09T07:24:40.273Z,51.179249
2023-07-09T07:25:40.280Z,51.179256
2023-07-09T07:26:40.233Z,51.179264
2023-07-09T07:27:40.310Z,51.179264
2023-07-09T07:28:40.232Z,51.179272
2023-07-09T07:29:40.204Z,51.179283
2023-07-09T07:30:40.216Z,51.179291
2023-07-09T07:31:40.253Z,51.179306
2023-07-09T07:32:40.241Z,51.179287
2023-07-09T07:33:40.170Z,51.179256
2023-07-09T07:34:40.164Z,51.179279
2023-07-09T07:36:00.124Z,51.179260
2023-07-09T07:36:43.754Z,51.179264
2023-07-09T07:37:41.128Z,51.179237
2023-07-09T07:38:40.121Z,51.179234
2023-07-09T07:39:40.151Z,51.179245
2023-07-09T07:40:40.116Z,51.179237
2023-07-09T07:41:40.083Z,51.179230
2023-07-09T07:42:40.119Z,51.179234
2023-07-09T07:43:40.077Z,51.179211
2023-07-09T07:44:40.062Z,51.179184
2023-07-09T07:45:40.076Z,51.179203
2023-07-09T07:46:40.104Z,51.179222
2023-07-09T07:47:40.059Z,51.179218
2023-07-09T07:48:40.031Z,51.179241
2023-07-09T07:49:40.033Z,51.179268
2023-07-09T07:50:39.973Z,51.179260
2023-07-09T07:51:40.009Z,51.179268
2023-07-09T07:52:39.988Z,51.179237
2023-07-09T07:53:39.961Z,51.179230
2023-07-09T07:54:39.972Z,51.179218
2023-07-09T07:55:39.978Z,51.179199
2023-07-09T07:56:41.192Z,51.179218
2023-07-09T07:57:40.921Z,51.179264
2023-07-09T07:58:39.953Z,51.179211
2023-07-09T07:59:39.913Z,51.179199
2023-07-09T08:00:41.232Z,51.179234
2023-07-09T08:01:39.948Z,51.179291
2023-07-09T08:02:39.996Z,51.179295
2023-07-09T08:03:39.907Z,51.179253
2023-07-09T08:04:39.873Z,51.179283
2023-07-09T08:05:39.877Z,51.179283
2023-07-09T08:06:39.844Z,51.179314
2023-07-09T08:07:39.816Z,51.179314
2023-07-09T08:08:39.819Z,51.179295
2023-07-09T08:09:39.831Z,51.179253
2023-07-09T08:10:39.823Z,51.179199
2023-07-09T08:11:39.787Z,51.179268
2023-07-09T08:12:39.762Z,51.179283
2023-07-09T08:13:40.799Z,51.179291
2023-07-09T08:14:39.729Z,51.179256
2023-07-09T08:15:39.774Z,51.179245
2023-07-09T08:16:39.852Z,51.179260
2023-07-09T08:17:39.844Z,51.179291
2023-07-09T08:18:39.857Z,51.179249
2023-07-09T08:19:39.715Z,51.179218
2023-07-09T08:20:39.701Z,51.179264
2023-07-09T08:21:39.661Z,51.179291
2023-07-09T08:22:40.903Z,51.179291
2023-07-09T08:23:40.662Z,51.179268
2023-07-09T08:24:39.644Z,51.179260
2023-07-09T08:25:39.644Z,51.179264
2023-07-09T08:26:39.635Z,51.179230
2023-07-09T08:27:39.613Z,51.179237
2023-07-09T08:28:39.598Z,51.179253
2023-07-09T08:29:39.615Z,51.179279
2023-07-09T08:30:39.573Z,51.179298
2023-07-09T08:31:39.647Z,51.179279
2023-07-09T08:32:39.690Z,51.179283
2023-07-09T08:33:39.562Z,51.179237
2023-07-09T08:34:40.631Z,51.179268
2023-07-09T08:35:40.578Z,51.179287
2023-07-09T08:36:39.565Z,51.179234
2023-07-09T08:37:39.507Z,51.179199
2023-07-09T08:38:39.523Z,51.179226
2023-07-09T08:39:39.481Z,51.179249
2023-07-09T08:40:39.490Z,51.179268
2023-07-09T08:41:39.526Z,51.179249
2023-07-09T08:42:50.736Z,51.179249
2023-07-09T08:43:41.476Z,51.179276
2023-07-09T08:44:39.470Z,51.179245
2023-07-09T08:45:39.461Z,51.179237
2023-07-09T08:46:39.488Z,51.179249
2023-07-09T08:47:39.483Z,51.179249
2023-07-09T08:48:39.419Z,51.179230
2023-07-09T08:49:39.411Z,51.179241
2023-07-09T08:50:39.409Z,51.179264
2023-07-09T08:51:39.402Z,51.179276
2023-07-09T08:52:39.381Z,51.179260
2023-07-09T08:53:39.357Z,51.179264
2023-07-09T08:54:39.371Z,51.179260
2023-07-09T08:55:39.347Z,51.179253
2023-07-09T08:56:39.351Z,51.179214
2023-07-09T08:57:39.344Z,51.179230
2023-07-09T08:58:39.337Z,51.179222
2023-07-09T08:59:39.302Z,51.179230
2023-07-09T09:00:39.289Z,51.179222
2023-07-09T09:01:39.330Z,51.179234
2023-07-09T09:02:39.294Z,51.179253
2023-07-09T09:03:39.426Z,51.179226
2023-07-09T09:04:39.262Z,51.179218
2023-07-09T09:05:39.228Z,51.179241
2023-07-09T09:06:39.257Z,51.179249
2023-07-09T09:07:39.245Z,51.179279
2023-07-09T09:08:39.215Z,51.179276
2023-07-09T09:09:39.203Z,51.179268
2023-07-09T09:10:39.193Z,51.179256
2023-07-09T09:11:39.201Z,51.179249
2023-07-09T09:12:39.196Z,51.179234
2023-07-09T09:13:39.245Z,51.179249
2023-07-09T09:14:39.188Z,51.179256
2023-07-09T09:15:39.220Z,51.179268
2023-07-09T09:16:39.204Z,51.179234
2023-07-09T09:17:39.155Z,51.179230
2023-07-09T09:18:39.145Z,51.179234
2023-07-09T09:19:39.128Z,51.179234
2023-07-09T09:20:39.088Z,51.179226
2023-07-09T09:21:39.120Z,51.179214
2023-07-09T09:22:39.106Z,51.179256
2023-07-09T09:23:39.073Z,51.179279
2023-07-09T09:24:39.052Z,51.179214
2023-07-09T09:25:39.078Z,51.179222
2023-07-09T09:26:39.017Z,51.179249
2023-07-09T09:27:39.054Z,51.179218
2023-07-09T09:28:39.035Z,51.179169
2023-07-09T09:29:38.989Z,51.179199
2023-07-09T09:30:39.004Z,51.179276
2023-07-09T09:31:39.029Z,51.179306
2023-07-09T09:32:39.006Z,51.179302
2023-07-09T09:33:38.979Z,51.179279
2023-07-09T09:34:38.970Z,51.179287
2023-07-09T09:35:38.929Z,51.179264
2023-07-09T09:36:38.928Z,51.179256
2023-07-09T09:37:38.950Z,51.179268
2023-07-09T09:38:38.909Z,51.179268
2023-07-09T09:39:38.883Z,51.179264
2023-07-09T09:40:38.889Z,51.179249
2023-07-09T09:41:38.902Z,51.179245
2023-07-09T09:42:38.893Z,51.179237
2023-07-09T09:43:38.843Z,51.179241
2023-07-09T09:44:38.851Z,51.179264
2023-07-09T09:45:38.864Z,51.179260
2023-07-09T09:46:38.882Z,51.179245
2023-07-09T09:47:38.846Z,51.179276
2023-07-09T09:48:38.814Z,51.179264
2023-07-09T09:49:38.810Z,51.179241
2023-07-09T09:50:39.763Z,51.179253
2023-07-09T09:51:38.786Z,51.179253
2023-07-09T09:52:38.768Z,51.179249
2023-07-09T09:53:39.747Z,51.179234
2023-07-09T09:54:38.736Z,51.179260
2023-07-09T09:55:38.777Z,51.179237
2023-07-09T09:56:38.734Z,51.179253
2023-07-09T09:57:38.712Z,51.179234
2023-07-09T09:58:38.725Z,51.179249
2023-07-09T09:59:38.757Z,51.179302
2023-07-09T10:00:38.701Z,51.179356
2023-07-09T10:01:38.908Z,51.179329
2023-07-09T10:02:38.846Z,51.179329
2023-07-09T10:03:38.702Z,51.179317
2023-07-09T10:04:38.639Z,51.179298
2023-07-09T10:05:38.661Z,51.179298
2023-07-09T10:06:38.614Z,51.179310
2023-07-09T10:07:38.633Z,51.179272
2023-07-09T10:08:38.605Z,51.179253
2023-07-09T10:09:38.572Z,51.179211
2023-07-09T10:10:38.597Z,51.179188
2023-07-09T10:11:38.595Z,51.179211
2023-07-09T10:12:38.556Z,51.179199
2023-07-09T10:13:38.608Z,51.179226
2023-07-09T10:14:38.547Z,51.179256
2023-07-09T10:15:38.560Z,51.179241
2023-07-09T10:16:38.538Z,51.179241
2023-07-09T10:17:38.571Z,51.179237
2023-07-09T10:18:38.573Z,51.179260
2023-07-09T10:19:38.527Z,51.179245
2023-07-09T10:20:38.504Z,51.179249
2023-07-09T10:21:38.495Z,51.179249
2023-07-09T10:22:38.496Z,51.179256
2023-07-09T10:23:38.451Z,51.179264
2023-07-09T10:24:38.443Z,51.179260
2023-07-09T10:25:38.457Z,51.179283
2023-07-09T10:26:39.424Z,51.179249
2023-07-09T10:27:38.388Z,51.179245
2023-07-09T10:28:38.408Z,51.179222
2023-07-09T10:29:38.400Z,51.179268
2023-07-09T10:30:38.393Z,51.179298
2023-07-09T10:31:39.345Z,51.179291
2023-07-09T10:32:39.430Z,51.179272
2023-07-09T10:33:38.344Z,51.179214
2023-07-09T10:34:38.347Z,51.179291
2023-07-09T10:35:38.344Z,51.179291
2023-07-09T10:36:38.334Z,51.179298
2023-07-09T10:37:38.285Z,51.179295
2023-07-09T10:38:38.324Z,51.179287
2023-07-09T10:39:38.282Z,51.179249
2023-07-09T10:40:38.268Z,51.179256
2023-07-09T10:41:38.275Z,51.179249
2023-07-09T10:42:38.269Z,51.179249
2023-07-09T10:43:38.230Z,51.179272
2023-07-09T10:44:38.251Z,51.179310
2023-07-09T10:45:38.249Z,51.179329
2023-07-09T10:46:38.307Z,51.179329
2023-07-09T10:47:38.270Z,51.179359
2023-07-09T10:48:38.207Z,51.179348
2023-07-09T10:49:38.166Z,51.179333
2023-07-09T10:50:38.192Z,51.179340
2023-07-09T10:51:38.205Z,51.179325
2023-07-09T10:52:38.156Z,51.179337
2023-07-09T10:53:38.134Z,51.179356
2023-07-09T10:54:38.153Z,51.179333
2023-07-09T10:55:38.104Z,51.179283
2023-07-09T10:56:38.112Z,51.179279
2023-07-09T10:57:38.128Z,51.179283
2023-07-09T10:58:38.103Z,51.179268
2023-07-09T10:59:38.068Z,51.179256
2023-07-09T11:00:38.092Z,51.179249
2023-07-09T11:01:38.111Z,51.179268
2023-07-09T11:02:38.100Z,51.179302
2023-07-09T11:03:38.083Z,51.179302
2023-07-09T11:04:38.053Z,51.179295
2023-07-09T11:05:38.006Z,51.179249
2023-07-09T11:06:38.015Z,51.179264
2023-07-09T11:07:38.019Z,51.179268
2023-07-09T11:08:38.005Z,51.179295
2023-07-09T11:09:37.983Z,51.179268
2023-07-09T11:10:37.993Z,51.179295
2023-07-09T11:11:37.961Z,51.179295
2023-07-09T11:12:37.965Z,51.179283
2023-07-09T11:13:50.999Z,51.179283
2023-07-09T11:14:40.053Z,51.179245
2023-07-09T11:15:37.919Z,51.179222
2023-07-09T11:16:37.937Z,51.179264
2023-07-09T11:17:37.944Z,51.179253
2023-07-09T11:18:37.923Z,51.179237
2023-07-09T11:19:37.872Z,51.179207
2023-07-09T11:20:37.887Z,51.179222
2023-07-09T11:21:38.455Z,51.179237
2023-07-09T11:22:38.888Z,51.179222
2023-07-09T11:23:37.827Z,51.179264
2023-07-09T11:24:37.861Z,51.179249
2023-07-09T11:25:37.845Z,51.179245